sensor_id;sensor_type;location;lat;lon;timestamp;P1;durP1;ratioP1;P2;durP2;ratioP2
29330;SDS011;16331;52.528;13.342;2022-08-21T00:01:26;10.07;;;4.90;;
29330;SDS011;16331;52.528;13.342;2022-08-21T00:04:20;14.40;;;4.68;;
29330;SDS011;16331;52.528;13.342;2022-08-21T00:07:00;6.70;;;4.13;;
29330;SDS011;16331;52.528;13.342;2022-08-21T00:09:34;9.68;;;4.65;;
29330;SDS011;16331;52.528;13.342;2022-08-21T00:12:01;8.25;;;5.10;;
29330;SDS011;16331;52.528;13.342;2022-08-21T00:14:28;7.50;;;4.50;;
29330;SDS011;16331;52.528;13.342;2022-08-21T00:16:54;10.63;;;4.72;;
29330;SDS011;16331;52.528;13.342;2022-08-21T00:19:24;11.70;;;5.00;;
29330;SDS011;16331;52.528;13.342;2022-08-21T00:21:51;8.57;;;4.82;;
29330;SDS011;16331;52.528;13.342;2022-08-21T00:24:20;9.23;;;4.55;;
29330;SDS011;16331;52.528;13.342;2022-08-21T00:26:52;12.32;;;5.25;;
29330;SDS011;16331;52.528;13.342;2022-08-21T00:29:18;10.45;;;5.07;;
29330;SDS011;16331;52.528;13.342;2022-08-21T00:31:45;9.90;;;4.18;;
29330;SDS011;16331;52.528;13.342;2022-08-21T00:34:11;11.73;;;4.57;;
29330;SDS011;16331;52.528;13.342;2022-08-21T00:36:41;7.88;;;5.18;;
29330;SDS011;16331;52.528;13.342;2022-08-21T00:39:08;30.88;;;17.83;;
29330;SDS011;16331;52.528;13.342;2022-08-21T00:41:38;9.77;;;5.28;;
29330;SDS011;16331;52.528;13.342;2022-08-21T00:44:05;8.48;;;4.40;;
29330;SDS011;16331;52.528;13.342;2022-08-21T00:46:35;11.27;;;5.22;;
29330;SDS011;16331;52.528;13.342;2022-08-21T00:49:02;9.57;;;5.47;;
29330;SDS011;16331;52.528;13.342;2022-08-21T00:54:18;14.13;;;5.72;;
29330;SDS011;16331;52.528;13.342;2022-08-21T00:56:46;9.18;;;5.80;;
29330;SDS011;16331;52.528;13.342;2022-08-21T00:59:17;11.88;;;5.68;;
29330;SDS011;16331;52.528;13.342;2022-08-21T01:01:45;8.85;;;5.63;;
29330;SDS011;16331;52.528;13.342;2022-08-21T01:04:11;11.27;;;6.35;;
29330;SDS011;16331;52.528;13.342;2022-08-21T01:06:38;9.55;;;5.72;;
29330;SDS011;16331;52.528;13.342;2022-08-21T01:09:04;10.63;;;6.38;;
29330;SDS011;16331;52.528;13.342;2022-08-21T01:11:30;10.75;;;5.72;;
29330;SDS011;16331;52.528;13.342;2022-08-21T01:13:56;12.45;;;6.45;;
29330;SDS011;16331;52.528;13.342;2022-08-21T01:16:26;14.05;;;7.00;;
29330;SDS011;16331;52.528;13.342;2022-08-21T01:18:53;14.20;;;6.28;;
29330;SDS011;16331;52.528;13.342;2022-08-21T01:21:21;11.30;;;6.10;;
29330;SDS011;16331;52.528;13.342;2022-08-21T01:23:54;11.18;;;5.90;;
29330;SDS011;16331;52.528;13.342;2022-08-21T01:26:49;10.07;;;6.47;;
29330;SDS011;16331;52.528;13.342;2022-08-21T01:29:30;11.80;;;6.07;;
29330;SDS011;16331;52.528;13.342;2022-08-21T01:32:05;10.43;;;5.63;;
29330;SDS011;16331;52.528;13.342;2022-08-21T01:34:36;10.70;;;5.82;;
29330;SDS011;16331;52.528;13.342;2022-08-21T01:37:08;10.70;;;6.03;;
29330;SDS011;16331;52.528;13.342;2022-08-21T01:39:35;10.45;;;5.88;;
29330;SDS011;16331;52.528;13.342;2022-08-21T01:42:02;12.43;;;5.40;;
29330;SDS011;16331;52.528;13.342;2022-08-21T01:44:32;8.57;;;4.95;;
29330;SDS011;16331;52.528;13.342;2022-08-21T01:47:00;10.50;;;4.57;;
29330;SDS011;16331;52.528;13.342;2022-08-21T01:49:29;9.35;;;4.60;;
29330;SDS011;16331;52.528;13.342;2022-08-21T01:51:55;6.65;;;4.03;;
29330;SDS011;16331;52.528;13.342;2022-08-21T01:54:22;6.18;;;4.15;;
29330;SDS011;16331;52.528;13.342;2022-08-21T01:56:49;8.98;;;3.85;;
29330;SDS011;16331;52.528;13.342;2022-08-21T01:59:17;8.38;;;3.53;;
29330;SDS011;16331;52.528;13.342;2022-08-21T02:01:43;5.25;;;3.35;;
29330;SDS011;16331;52.528;13.342;2022-08-21T02:04:13;6.03;;;3.47;;
29330;SDS011;16331;52.528;13.342;2022-08-21T02:06:39;6.35;;;3.20;;
29330;SDS011;16331;52.528;13.342;2022-08-21T02:09:06;8.45;;;3.20;;
29330;SDS011;16331;52.528;13.342;2022-08-21T02:11:47;6.07;;;3.13;;
29330;SDS011;16331;52.528;13.342;2022-08-21T02:14:17;7.30;;;3.60;;
29330;SDS011;16331;52.528;13.342;2022-08-21T02:16:43;7.45;;;3.70;;
29330;SDS011;16331;52.528;13.342;2022-08-21T02:19:11;5.30;;;3.17;;
29330;SDS011;16331;52.528;13.342;2022-08-21T02:21:39;4.78;;;2.70;;
29330;SDS011;16331;52.528;13.342;2022-08-21T02:24:05;8.02;;;3.15;;
29330;SDS011;16331;52.528;13.342;2022-08-21T02:26:32;5.15;;;3.22;;
29330;SDS011;16331;52.528;13.342;2022-08-21T02:28:59;7.15;;;3.30;;
29330;SDS011;16331;52.528;13.342;2022-08-21T02:31:25;7.55;;;2.95;;
29330;SDS011;16331;52.528;13.342;2022-08-21T02:33:51;5.18;;;3.15;;
29330;SDS011;16331;52.528;13.342;2022-08-21T02:36:20;6.88;;;3.72;;
29330;SDS011;16331;52.528;13.342;2022-08-21T02:38:46;8.52;;;3.65;;
29330;SDS011;16331;52.528;13.342;2022-08-21T02:41:14;9.82;;;3.53;;
29330;SDS011;16331;52.528;13.342;2022-08-21T02:43:42;6.90;;;3.92;;
29330;SDS011;16331;52.528;13.342;2022-08-21T02:46:09;8.90;;;4.28;;
29330;SDS011;16331;52.528;13.342;2022-08-21T02:48:37;6.03;;;3.88;;
29330;SDS011;16331;52.528;13.342;2022-08-21T02:51:08;6.97;;;3.15;;
29330;SDS011;16331;52.528;13.342;2022-08-21T02:53:40;5.82;;;3.97;;
29330;SDS011;16331;52.528;13.342;2022-08-21T02:56:08;8.13;;;4.22;;
29330;SDS011;16331;52.528;13.342;2022-08-21T02:58:39;4.97;;;3.28;;
29330;SDS011;16331;52.528;13.342;2022-08-21T03:01:08;7.72;;;3.78;;
29330;SDS011;16331;52.528;13.342;2022-08-21T03:03:35;6.65;;;3.88;;
29330;SDS011;16331;52.528;13.342;2022-08-21T03:06:04;7.00;;;3.17;;
29330;SDS011;16331;52.528;13.342;2022-08-21T03:08:33;9.23;;;3.88;;
29330;SDS011;16331;52.528;13.342;2022-08-21T03:10:59;9.30;;;4.07;;
29330;SDS011;16331;52.528;13.342;2022-08-21T03:13:26;6.63;;;3.55;;
29330;SDS011;16331;52.528;13.342;2022-08-21T03:15:53;5.97;;;3.22;;
29330;SDS011;16331;52.528;13.342;2022-08-21T03:18:20;7.18;;;3.15;;
29330;SDS011;16331;52.528;13.342;2022-08-21T03:20:46;8.60;;;3.33;;
29330;SDS011;16331;52.528;13.342;2022-08-21T03:23:14;6.55;;;3.13;;
29330;SDS011;16331;52.528;13.342;2022-08-21T03:25:41;6.82;;;3.50;;
29330;SDS011;16331;52.528;13.342;2022-08-21T03:28:09;5.53;;;3.03;;
29330;SDS011;16331;52.528;13.342;2022-08-21T03:30:37;7.47;;;2.88;;
29330;SDS011;16331;52.528;13.342;2022-08-21T03:33:05;7.82;;;3.00;;
29330;SDS011;16331;52.528;13.342;2022-08-21T03:35:31;6.25;;;3.55;;
29330;SDS011;16331;52.528;13.342;2022-08-21T03:37:57;7.72;;;3.25;;
29330;SDS011;16331;52.528;13.342;2022-08-21T03:40:23;5.50;;;3.17;;
29330;SDS011;16331;52.528;13.342;2022-08-21T03:42:49;4.00;;;2.90;;
29330;SDS011;16331;52.528;13.342;2022-08-21T03:45:16;10.52;;;2.97;;
29330;SDS011;16331;52.528;13.342;2022-08-21T03:47:51;4.85;;;2.97;;
29330;SDS011;16331;52.528;13.342;2022-08-21T03:50:23;4.38;;;2.67;;
29330;SDS011;16331;52.528;13.342;2022-08-21T03:52:51;5.30;;;2.65;;
29330;SDS011;16331;52.528;13.342;2022-08-21T03:55:20;3.63;;;2.67;;
29330;SDS011;16331;52.528;13.342;2022-08-21T03:57:46;8.65;;;2.78;;
29330;SDS011;16331;52.528;13.342;2022-08-21T04:00:13;10.15;;;3.20;;
29330;SDS011;16331;52.528;13.342;2022-08-21T04:02:40;6.43;;;2.63;;
29330;SDS011;16331;52.528;13.342;2022-08-21T04:05:08;6.55;;;3.00;;
29330;SDS011;16331;52.528;13.342;2022-08-21T04:07:36;5.25;;;2.60;;
29330;SDS011;16331;52.528;13.342;2022-08-21T04:10:03;10.50;;;3.13;;
29330;SDS011;16331;52.528;13.342;2022-08-21T04:12:30;8.18;;;2.88;;
29330;SDS011;16331;52.528;13.342;2022-08-21T04:14:56;4.65;;;2.85;;
29330;SDS011;16331;52.528;13.342;2022-08-21T04:17:22;6.30;;;2.80;;
29330;SDS011;16331;52.528;13.342;2022-08-21T04:19:48;3.92;;;2.67;;
29330;SDS011;16331;52.528;13.342;2022-08-21T04:22:15;5.22;;;2.20;;
29330;SDS011;16331;52.528;13.342;2022-08-21T04:24:41;5.93;;;2.53;;
29330;SDS011;16331;52.528;13.342;2022-08-21T04:27:07;6.10;;;2.65;;
29330;SDS011;16331;52.528;13.342;2022-08-21T04:29:33;8.68;;;3.15;;
29330;SDS011;16331;52.528;13.342;2022-08-21T04:31:59;6.55;;;2.17;;
29330;SDS011;16331;52.528;13.342;2022-08-21T04:34:25;5.90;;;2.33;;
29330;SDS011;16331;52.528;13.342;2022-08-21T04:36:52;6.45;;;2.67;;
29330;SDS011;16331;52.528;13.342;2022-08-21T04:39:18;4.03;;;2.25;;
29330;SDS011;16331;52.528;13.342;2022-08-21T04:41:44;4.85;;;2.55;;
29330;SDS011;16331;52.528;13.342;2022-08-21T04:44:10;7.82;;;2.25;;
29330;SDS011;16331;52.528;13.342;2022-08-21T04:46:36;5.47;;;2.20;;
29330;SDS011;16331;52.528;13.342;2022-08-21T04:49:05;6.47;;;2.05;;
29330;SDS011;16331;52.528;13.342;2022-08-21T04:51:32;6.90;;;2.30;;
29330;SDS011;16331;52.528;13.342;2022-08-21T04:54:12;3.85;;;2.28;;
29330;SDS011;16331;52.528;13.342;2022-08-21T04:56:47;6.53;;;2.40;;
29330;SDS011;16331;52.528;13.342;2022-08-21T04:59:16;4.65;;;2.05;;
29330;SDS011;16331;52.528;13.342;2022-08-21T05:01:49;5.43;;;2.80;;
29330;SDS011;16331;52.528;13.342;2022-08-21T05:04:21;6.45;;;2.30;;
29330;SDS011;16331;52.528;13.342;2022-08-21T05:06:51;7.35;;;2.63;;
29330;SDS011;16331;52.528;13.342;2022-08-21T05:09:21;6.70;;;2.80;;
29330;SDS011;16331;52.528;13.342;2022-08-21T05:11:49;3.88;;;1.85;;
29330;SDS011;16331;52.528;13.342;2022-08-21T05:14:16;6.00;;;1.92;;
29330;SDS011;16331;52.528;13.342;2022-08-21T05:16:44;8.50;;;2.25;;
29330;SDS011;16331;52.528;13.342;2022-08-21T05:19:10;3.03;;;2.10;;
29330;SDS011;16331;52.528;13.342;2022-08-21T05:21:38;6.60;;;3.20;;
29330;SDS011;16331;52.528;13.342;2022-08-21T05:24:06;9.60;;;2.85;;
29330;SDS011;16331;52.528;13.342;2022-08-21T05:26:35;5.18;;;2.55;;
29330;SDS011;16331;52.528;13.342;2022-08-21T05:29:02;5.30;;;1.98;;
29330;SDS011;16331;52.528;13.342;2022-08-21T05:31:28;6.40;;;2.25;;
29330;SDS011;16331;52.528;13.342;2022-08-21T05:33:54;12.20;;;2.10;;
29330;SDS011;16331;52.528;13.342;2022-08-21T05:36:21;5.15;;;2.20;;
29330;SDS011;16331;52.528;13.342;2022-08-21T05:38:48;9.07;;;2.63;;
29330;SDS011;16331;52.528;13.342;2022-08-21T05:41:14;6.88;;;2.33;;
29330;SDS011;16331;52.528;13.342;2022-08-21T05:43:40;6.53;;;2.35;;
29330;SDS011;16331;52.528;13.342;2022-08-21T05:46:06;9.18;;;2.65;;
29330;SDS011;16331;52.528;13.342;2022-08-21T05:48:37;9.90;;;3.05;;
29330;SDS011;16331;52.528;13.342;2022-08-21T05:51:11;5.85;;;2.22;;
29330;SDS011;16331;52.528;13.342;2022-08-21T05:53:39;5.53;;;2.22;;
29330;SDS011;16331;52.528;13.342;2022-08-21T05:56:07;4.38;;;1.83;;
29330;SDS011;16331;52.528;13.342;2022-08-21T05:58:34;4.25;;;2.17;;
29330;SDS011;16331;52.528;13.342;2022-08-21T06:01:01;3.35;;;1.88;;
29330;SDS011;16331;52.528;13.342;2022-08-21T06:03:29;2.80;;;1.77;;
29330;SDS011;16331;52.528;13.342;2022-08-21T06:05:59;2.90;;;1.88;;
29330;SDS011;16331;52.528;13.342;2022-08-21T06:08:25;5.13;;;2.17;;
29330;SDS011;16331;52.528;13.342;2022-08-21T06:10:52;4.38;;;2.10;;
29330;SDS011;16331;52.528;13.342;2022-08-21T06:13:20;4.85;;;1.80;;
29330;SDS011;16331;52.528;13.342;2022-08-21T06:15:48;4.18;;;1.80;;
29330;SDS011;16331;52.528;13.342;2022-08-21T06:18:15;8.68;;;2.65;;
29330;SDS011;16331;52.528;13.342;2022-08-21T06:20:42;12.40;;;3.15;;
29330;SDS011;16331;52.528;13.342;2022-08-21T06:23:09;5.72;;;1.85;;
29330;SDS011;16331;52.528;13.342;2022-08-21T06:25:35;4.15;;;2.00;;
29330;SDS011;16331;52.528;13.342;2022-08-21T06:28:05;8.80;;;2.17;;
29330;SDS011;16331;52.528;13.342;2022-08-21T06:30:34;11.23;;;1.90;;
29330;SDS011;16331;52.528;13.342;2022-08-21T06:33:01;3.88;;;1.80;;
29330;SDS011;16331;52.528;13.342;2022-08-21T06:35:28;9.52;;;2.22;;
29330;SDS011;16331;52.528;13.342;2022-08-21T06:37:55;5.10;;;1.90;;
29330;SDS011;16331;52.528;13.342;2022-08-21T06:40:22;2.85;;;2.08;;
29330;SDS011;16331;52.528;13.342;2022-08-21T06:42:49;14.38;;;2.17;;
29330;SDS011;16331;52.528;13.342;2022-08-21T06:45:15;8.73;;;2.47;;
29330;SDS011;16331;52.528;13.342;2022-08-21T06:47:41;7.15;;;2.20;;
29330;SDS011;16331;52.528;13.342;2022-08-21T06:50:08;6.95;;;2.22;;
29330;SDS011;16331;52.528;13.342;2022-08-21T06:52:35;6.22;;;2.28;;
29330;SDS011;16331;52.528;13.342;2022-08-21T06:55:02;6.88;;;2.33;;
29330;SDS011;16331;52.528;13.342;2022-08-21T06:57:31;4.70;;;1.67;;
29330;SDS011;16331;52.528;13.342;2022-08-21T06:59:57;7.50;;;2.03;;
29330;SDS011;16331;52.528;13.342;2022-08-21T07:02:23;8.00;;;2.22;;
29330;SDS011;16331;52.528;13.342;2022-08-21T07:04:49;6.22;;;2.33;;
29330;SDS011;16331;52.528;13.342;2022-08-21T07:07:15;5.10;;;2.22;;
29330;SDS011;16331;52.528;13.342;2022-08-21T07:09:42;7.20;;;2.08;;
29330;SDS011;16331;52.528;13.342;2022-08-21T07:12:08;3.83;;;2.03;;
29330;SDS011;16331;52.528;13.342;2022-08-21T07:14:35;4.68;;;1.73;;
29330;SDS011;16331;52.528;13.342;2022-08-21T07:17:02;4.50;;;2.22;;
29330;SDS011;16331;52.528;13.342;2022-08-21T07:19:31;8.13;;;2.38;;
29330;SDS011;16331;52.528;13.342;2022-08-21T07:21:58;8.82;;;2.25;;
29330;SDS011;16331;52.528;13.342;2022-08-21T07:24:27;7.13;;;2.17;;
29330;SDS011;16331;52.528;13.342;2022-08-21T07:26:54;5.75;;;2.08;;
29330;SDS011;16331;52.528;13.342;2022-08-21T07:29:20;4.88;;;1.90;;
29330;SDS011;16331;52.528;13.342;2022-08-21T07:31:46;4.88;;;1.92;;
29330;SDS011;16331;52.528;13.342;2022-08-21T07:34:12;10.32;;;2.15;;
29330;SDS011;16331;52.528;13.342;2022-08-21T07:36:39;5.13;;;1.75;;
29330;SDS011;16331;52.528;13.342;2022-08-21T07:39:07;12.48;;;2.28;;
29330;SDS011;16331;52.528;13.342;2022-08-21T07:41:33;8.95;;;1.85;;
29330;SDS011;16331;52.528;13.342;2022-08-21T07:44:00;4.45;;;2.00;;
29330;SDS011;16331;52.528;13.342;2022-08-21T07:46:26;5.95;;;1.73;;
29330;SDS011;16331;52.528;13.342;2022-08-21T07:48:53;7.82;;;2.08;;
29330;SDS011;16331;52.528;13.342;2022-08-21T07:51:20;9.40;;;1.58;;
29330;SDS011;16331;52.528;13.342;2022-08-21T07:53:50;5.75;;;1.75;;
29330;SDS011;16331;52.528;13.342;2022-08-21T07:56:18;5.35;;;1.60;;
29330;SDS011;16331;52.528;13.342;2022-08-21T07:58:44;4.50;;;1.65;;
29330;SDS011;16331;52.528;13.342;2022-08-21T08:01:11;9.35;;;1.42;;
29330;SDS011;16331;52.528;13.342;2022-08-21T08:03:38;8.38;;;1.80;;
29330;SDS011;16331;52.528;13.342;2022-08-21T08:06:06;3.95;;;1.40;;
29330;SDS011;16331;52.528;13.342;2022-08-21T08:08:37;12.95;;;4.82;;
29330;SDS011;16331;52.528;13.342;2022-08-21T08:11:04;7.57;;;2.13;;
29330;SDS011;16331;52.528;13.342;2022-08-21T08:13:30;9.45;;;1.67;;
29330;SDS011;16331;52.528;13.342;2022-08-21T08:15:56;4.97;;;1.85;;
29330;SDS011;16331;52.528;13.342;2022-08-21T08:18:22;9.35;;;1.92;;
29330;SDS011;16331;52.528;13.342;2022-08-21T08:20:48;4.85;;;1.52;;
29330;SDS011;16331;52.528;13.342;2022-08-21T08:23:15;5.43;;;1.48;;
29330;SDS011;16331;52.528;13.342;2022-08-21T08:25:41;4.68;;;1.92;;
29330;SDS011;16331;52.528;13.342;2022-08-21T08:28:07;9.68;;;1.92;;
29330;SDS011;16331;52.528;13.342;2022-08-21T08:30:33;8.73;;;2.05;;
29330;SDS011;16331;52.528;13.342;2022-08-21T08:33:00;2.83;;;1.02;;
29330;SDS011;16331;52.528;13.342;2022-08-21T08:35:26;2.72;;;1.30;;
29330;SDS011;16331;52.528;13.342;2022-08-21T08:37:53;4.30;;;0.75;;
29330;SDS011;16331;52.528;13.342;2022-08-21T08:43:03;8.13;;;0.98;;
29330;SDS011;16331;52.528;13.342;2022-08-21T08:45:36;3.72;;;0.82;;
29330;SDS011;16331;52.528;13.342;2022-08-21T08:48:06;1.67;;;1.08;;
29330;SDS011;16331;52.528;13.342;2022-08-21T08:50:44;5.00;;;1.08;;
29330;SDS011;16331;52.528;13.342;2022-08-21T08:53:17;4.00;;;0.82;;
29330;SDS011;16331;52.528;13.342;2022-08-21T08:56:02;8.98;;;1.35;;
29330;SDS011;16331;52.528;13.342;2022-08-21T08:58:32;2.97;;;1.02;;
29330;SDS011;16331;52.528;13.342;2022-08-21T09:01:02;6.35;;;1.38;;
29330;SDS011;16331;52.528;13.342;2022-08-21T09:03:34;3.83;;;1.00;;
29330;SDS011;16331;52.528;13.342;2022-08-21T09:06:06;2.05;;;0.80;;
29330;SDS011;16331;52.528;13.342;2022-08-21T09:28:37;1.67;;;0.88;;
29330;SDS011;16331;52.528;13.342;2022-08-21T09:31:07;2.67;;;0.80;;
29330;SDS011;16331;52.528;13.342;2022-08-21T09:33:39;4.82;;;1.27;;
29330;SDS011;16331;52.528;13.342;2022-08-21T09:36:05;2.38;;;0.90;;
29330;SDS011;16331;52.528;13.342;2022-08-21T09:38:35;3.10;;;0.88;;
29330;SDS011;16331;52.528;13.342;2022-08-21T09:41:06;2.97;;;0.80;;
29330;SDS011;16331;52.528;13.342;2022-08-21T09:46:19;5.30;;;1.73;;
29330;SDS011;16331;52.528;13.342;2022-08-21T09:48:51;13.10;;;5.30;;
29330;SDS011;16331;52.528;13.342;2022-08-21T09:51:21;6.10;;;2.25;;
29330;SDS011;16331;52.528;13.342;2022-08-21T09:56:32;7.03;;;1.33;;
29330;SDS011;16331;52.528;13.342;2022-08-21T09:59:31;3.65;;;1.15;;
29330;SDS011;16331;52.528;13.342;2022-08-21T10:02:00;5.35;;;1.27;;
29330;SDS011;16331;52.528;13.342;2022-08-21T10:04:29;1.85;;;0.80;;
29330;SDS011;16331;52.528;13.342;2022-08-21T10:07:12;2.25;;;1.00;;
29330;SDS011;16331;52.528;13.342;2022-08-21T10:09:40;6.97;;;1.43;;
29330;SDS011;16331;52.528;13.342;2022-08-21T10:12:09;3.80;;;1.52;;
29330;SDS011;16331;52.528;13.342;2022-08-21T10:14:57;2.72;;;1.10;;
29330;SDS011;16331;52.528;13.342;2022-08-21T10:18:02;4.25;;;1.33;;
29330;SDS011;16331;52.528;13.342;2022-08-21T10:23:58;2.78;;;1.05;;
29330;SDS011;16331;52.528;13.342;2022-08-21T10:32:27;2.53;;;0.85;;
29330;SDS011;16331;52.528;13.342;2022-08-21T10:35:13;4.70;;;1.15;;
29330;SDS011;16331;52.528;13.342;2022-08-21T10:46:50;2.90;;;0.95;;
29330;SDS011;16331;52.528;13.342;2022-08-21T10:55:41;2.33;;;0.90;;
29330;SDS011;16331;52.528;13.342;2022-08-21T10:58:22;1.63;;;0.85;;
29330;SDS011;16331;52.528;13.342;2022-08-21T11:00:58;4.93;;;1.33;;
29330;SDS011;16331;52.528;13.342;2022-08-21T11:03:44;1.73;;;0.80;;
29330;SDS011;16331;52.528;13.342;2022-08-21T11:08:50;3.10;;;0.60;;
29330;SDS011;16331;52.528;13.342;2022-08-21T11:14:29;2.08;;;0.70;;
29330;SDS011;16331;52.528;13.342;2022-08-21T11:17:13;1.85;;;0.82;;
29330;SDS011;16331;52.528;13.342;2022-08-21T11:22:23;5.40;;;0.70;;
29330;SDS011;16331;52.528;13.342;2022-08-21T11:25:17;1.55;;;0.38;;
29330;SDS011;16331;52.528;13.342;2022-08-21T11:28:23;1.83;;;0.73;;
29330;SDS011;16331;52.528;13.342;2022-08-21T11:47:59;0.88;;;0.50;;
29330;SDS011;16331;52.528;13.342;2022-08-21T11:50:31;3.50;;;0.55;;
29330;SDS011;16331;52.528;13.342;2022-08-21T11:55:58;0.82;;;0.55;;
29330;SDS011;16331;52.528;13.342;2022-08-21T11:58:35;3.47;;;1.05;;
29330;SDS011;16331;52.528;13.342;2022-08-21T12:01:09;1.98;;;0.60;;
29330;SDS011;16331;52.528;13.342;2022-08-21T12:03:58;2.25;;;0.70;;
29330;SDS011;16331;52.528;13.342;2022-08-21T12:06:33;3.17;;;0.82;;
29330;SDS011;16331;52.528;13.342;2022-08-21T12:09:04;6.57;;;4.22;;
29330;SDS011;16331;52.528;13.342;2022-08-21T12:11:48;2.78;;;1.88;;
29330;SDS011;16331;52.528;13.342;2022-08-21T12:14:36;2.85;;;1.58;;
29330;SDS011;16331;52.528;13.342;2022-08-21T12:17:05;1.35;;;0.50;;
29330;SDS011;16331;52.528;13.342;2022-08-21T12:19:32;1.95;;;0.57;;
29330;SDS011;16331;52.528;13.342;2022-08-21T12:27:29;5.00;;;0.60;;
29330;SDS011;16331;52.528;13.342;2022-08-21T12:30:06;3.83;;;0.90;;
29330;SDS011;16331;52.528;13.342;2022-08-21T12:32:54;1.93;;;0.83;;
29330;SDS011;16331;52.528;13.342;2022-08-21T12:35:27;1.45;;;0.70;;
29330;SDS011;16331;52.528;13.342;2022-08-21T12:38:12;1.95;;;0.70;;
29330;SDS011;16331;52.528;13.342;2022-08-21T12:40:49;2.67;;;0.88;;
29330;SDS011;16331;52.528;13.342;2022-08-21T12:43:27;1.58;;;0.77;;
29330;SDS011;16331;52.528;13.342;2022-08-21T12:45:57;1.73;;;0.70;;
29330;SDS011;16331;52.528;13.342;2022-08-21T12:48:31;3.75;;;0.73;;
29330;SDS011;16331;52.528;13.342;2022-08-21T12:51:22;1.85;;;0.75;;
29330;SDS011;16331;52.528;13.342;2022-08-21T12:53:59;3.25;;;0.90;;
29330;SDS011;16331;52.528;13.342;2022-08-21T12:56:27;3.35;;;0.85;;
29330;SDS011;16331;52.528;13.342;2022-08-21T12:58:56;2.40;;;0.70;;
29330;SDS011;16331;52.528;13.342;2022-08-21T13:01:32;2.33;;;0.50;;
29330;SDS011;16331;52.528;13.342;2022-08-21T13:04:04;2.80;;;0.60;;
29330;SDS011;16331;52.528;13.342;2022-08-21T13:06:43;1.83;;;0.70;;
29330;SDS011;16331;52.528;13.342;2022-08-21T13:09:16;1.63;;;0.70;;
29330;SDS011;16331;52.528;13.342;2022-08-21T13:11:47;1.58;;;0.73;;
29330;SDS011;16331;52.528;13.342;2022-08-21T13:14:31;4.10;;;0.90;;
29330;SDS011;16331;52.528;13.342;2022-08-21T13:17:18;3.17;;;0.65;;
29330;SDS011;16331;52.528;13.342;2022-08-21T13:19:54;2.20;;;0.70;;
29330;SDS011;16331;52.528;13.342;2022-08-21T13:22:30;4.30;;;2.35;;
29330;SDS011;16331;52.528;13.342;2022-08-21T13:25:03;4.63;;;2.33;;
29330;SDS011;16331;52.528;13.342;2022-08-21T13:27:36;2.60;;;0.95;;
29330;SDS011;16331;52.528;13.342;2022-08-21T13:30:09;4.10;;;0.88;;
29330;SDS011;16331;52.528;13.342;2022-08-21T13:32:42;3.85;;;0.77;;
29330;SDS011;16331;52.528;13.342;2022-08-21T13:35:30;1.60;;;0.75;;
29330;SDS011;16331;52.528;13.342;2022-08-21T13:38:03;2.78;;;0.60;;
29330;SDS011;16331;52.528;13.342;2022-08-21T13:40:39;2.25;;;0.95;;
29330;SDS011;16331;52.528;13.342;2022-08-21T13:43:14;3.67;;;1.42;;
29330;SDS011;16331;52.528;13.342;2022-08-21T13:45:49;4.70;;;1.67;;
29330;SDS011;16331;52.528;13.342;2022-08-21T13:48:17;3.13;;;1.80;;
29330;SDS011;16331;52.528;13.342;2022-08-21T13:50:45;2.40;;;1.10;;
29330;SDS011;16331;52.528;13.342;2022-08-21T13:53:28;8.27;;;3.08;;
29330;SDS011;16331;52.528;13.342;2022-08-21T13:56:30;3.70;;;1.95;;
29330;SDS011;16331;52.528;13.342;2022-08-21T13:59:05;6.57;;;2.60;;
29330;SDS011;16331;52.528;13.342;2022-08-21T14:01:36;3.88;;;0.90;;
29330;SDS011;16331;52.528;13.342;2022-08-21T14:04:06;1.45;;;0.77;;
29330;SDS011;16331;52.528;13.342;2022-08-21T14:06:41;3.53;;;1.08;;
29330;SDS011;16331;52.528;13.342;2022-08-21T14:09:09;4.60;;;1.05;;
29330;SDS011;16331;52.528;13.342;2022-08-21T14:11:38;1.30;;;0.60;;
29330;SDS011;16331;52.528;13.342;2022-08-21T14:14:11;3.05;;;0.80;;
29330;SDS011;16331;52.528;13.342;2022-08-21T14:16:57;4.38;;;0.77;;
29330;SDS011;16331;52.528;13.342;2022-08-21T14:19:27;4.88;;;1.00;;
29330;SDS011;16331;52.528;13.342;2022-08-21T14:22:20;1.98;;;0.80;;
29330;SDS011;16331;52.528;13.342;2022-08-21T14:25:00;2.17;;;0.95;;
29330;SDS011;16331;52.528;13.342;2022-08-21T14:27:31;4.68;;;1.00;;
29330;SDS011;16331;52.528;13.342;2022-08-21T14:30:10;4.03;;;1.30;;
29330;SDS011;16331;52.528;13.342;2022-08-21T14:32:41;6.03;;;1.20;;
29330;SDS011;16331;52.528;13.342;2022-08-21T14:35:07;2.88;;;0.93;;
29330;SDS011;16331;52.528;13.342;2022-08-21T14:37:34;5.90;;;1.33;;
29330;SDS011;16331;52.528;13.342;2022-08-21T14:40:01;2.42;;;1.00;;
29330;SDS011;16331;52.528;13.342;2022-08-21T14:42:28;2.58;;;1.23;;
29330;SDS011;16331;52.528;13.342;2022-08-21T14:44:55;3.67;;;1.17;;
29330;SDS011;16331;52.528;13.342;2022-08-21T14:47:26;2.20;;;0.90;;
29330;SDS011;16331;52.528;13.342;2022-08-21T14:49:53;2.58;;;1.10;;
29330;SDS011;16331;52.528;13.342;2022-08-21T14:52:19;5.07;;;1.08;;
29330;SDS011;16331;52.528;13.342;2022-08-21T14:54:47;2.05;;;0.70;;
29330;SDS011;16331;52.528;13.342;2022-08-21T14:57:14;4.75;;;0.77;;
29330;SDS011;16331;52.528;13.342;2022-08-21T14:59:40;2.85;;;0.77;;
29330;SDS011;16331;52.528;13.342;2022-08-21T15:02:07;2.13;;;1.20;;
29330;SDS011;16331;52.528;13.342;2022-08-21T15:04:34;2.45;;;0.80;;
29330;SDS011;16331;52.528;13.342;2022-08-21T15:07:00;3.95;;;0.90;;
29330;SDS011;16331;52.528;13.342;2022-08-21T15:09:26;2.50;;;0.88;;
29330;SDS011;16331;52.528;13.342;2022-08-21T15:11:53;2.72;;;0.80;;
29330;SDS011;16331;52.528;13.342;2022-08-21T15:14:23;2.75;;;1.35;;
29330;SDS011;16331;52.528;13.342;2022-08-21T15:16:51;4.75;;;1.50;;
29330;SDS011;16331;52.528;13.342;2022-08-21T15:19:19;4.68;;;1.73;;
29330;SDS011;16331;52.528;13.342;2022-08-21T15:21:46;2.38;;;1.17;;
29330;SDS011;16331;52.528;13.342;2022-08-21T15:24:12;2.97;;;1.10;;
29330;SDS011;16331;52.528;13.342;2022-08-21T15:26:38;4.00;;;1.13;;
29330;SDS011;16331;52.528;13.342;2022-08-21T15:29:06;4.93;;;1.00;;
29330;SDS011;16331;52.528;13.342;2022-08-21T15:31:33;4.68;;;1.23;;
29330;SDS011;16331;52.528;13.342;2022-08-21T15:34:00;2.88;;;1.33;;
29330;SDS011;16331;52.528;13.342;2022-08-21T15:36:28;4.05;;;1.20;;
29330;SDS011;16331;52.528;13.342;2022-08-21T15:38:54;3.72;;;1.00;;
29330;SDS011;16331;52.528;13.342;2022-08-21T15:41:21;4.05;;;1.23;;
29330;SDS011;16331;52.528;13.342;2022-08-21T15:43:48;5.32;;;1.73;;
29330;SDS011;16331;52.528;13.342;2022-08-21T15:46:19;3.60;;;1.30;;
29330;SDS011;16331;52.528;13.342;2022-08-21T15:48:45;7.38;;;1.73;;
29330;SDS011;16331;52.528;13.342;2022-08-21T15:51:13;2.70;;;1.08;;
29330;SDS011;16331;52.528;13.342;2022-08-21T15:53:40;3.05;;;1.20;;
29330;SDS011;16331;52.528;13.342;2022-08-21T15:56:11;8.55;;;1.38;;
29330;SDS011;16331;52.528;13.342;2022-08-21T15:58:49;7.68;;;1.60;;
29330;SDS011;16331;52.528;13.342;2022-08-21T16:01:17;7.00;;;1.70;;
29330;SDS011;16331;52.528;13.342;2022-08-21T16:03:47;4.45;;;1.65;;
29330;SDS011;16331;52.528;13.342;2022-08-21T16:06:15;6.00;;;1.60;;
29330;SDS011;16331;52.528;13.342;2022-08-21T16:08:43;3.42;;;1.40;;
29330;SDS011;16331;52.528;13.342;2022-08-21T16:11:12;8.38;;;2.45;;
29330;SDS011;16331;52.528;13.342;2022-08-21T16:13:41;5.35;;;1.45;;
29330;SDS011;16331;52.528;13.342;2022-08-21T16:16:12;6.22;;;1.63;;
29330;SDS011;16331;52.528;13.342;2022-08-21T16:18:46;7.15;;;3.63;;
29330;SDS011;16331;52.528;13.342;2022-08-21T16:21:14;6.18;;;1.83;;